createdAt,value
2019-04-09T00:00:46.906Z,57.70
2019-04-09T00:01:46.903Z,56.40
2019-04-09T00:02:46.898Z,59.20
2019-04-09T00:03:47.796Z,58.80
2019-04-09T00:04:47.734Z,58.40
2019-04-09T00:05:47.857Z,59.40
2019-04-09T00:06:47.854Z,57.90
2019-04-09T00:07:58.736Z,60.10
2019-04-09T00:08:47.732Z,59.90
2019-04-09T00:09:47.618Z,57.70
2019-04-09T00:10:46.866Z,60.10
2019-04-09T00:11:47.666Z,58.70
2019-04-09T00:12:46.840Z,59.00
2019-04-09T00:13:47.051Z,59.50
2019-04-09T00:14:46.840Z,61.20
2019-04-09T00:15:47.782Z,60.30
2019-04-09T00:16:47.714Z,59.20
2019-04-09T00:17:46.846Z,59.30
2019-04-09T00:18:54.158Z,59.10
2019-04-09T00:19:47.753Z,58.60
2019-04-09T00:20:54.000Z,59.30
2019-04-09T00:21:47.694Z,61.60
2019-04-09T00:22:46.790Z,61.50
2019-04-09T00:23:46.796Z,63.30
2019-04-09T00:24:47.660Z,61.30
2019-04-09T00:25:46.846Z,62.50
2019-04-09T00:26:51.711Z,61.70
2019-04-09T00:27:47.359Z,61.70
2019-04-09T00:28:46.762Z,64.30
2019-04-09T00:29:46.757Z,62.60
2019-04-09T00:30:47.465Z,65.10
2019-04-09T00:31:47.497Z,63.70
2019-04-09T00:32:46.725Z,60.90
2019-04-09T00:33:46.757Z,62.80
2019-04-09T00:34:46.748Z,64.40
2019-04-09T00:35:46.715Z,64.80
2019-04-09T00:36:46.711Z,65.70
2019-04-09T00:37:47.571Z,63.10
2019-04-09T00:38:47.615Z,64.90
2019-04-09T00:39:46.692Z,65.30
2019-04-09T00:40:46.705Z,65.30
2019-04-09T00:41:46.703Z,64.10
2019-04-09T00:42:46.687Z,66.40
2019-04-09T00:43:47.558Z,65.70
2019-04-09T00:44:46.844Z,65.50
2019-04-09T00:45:46.850Z,65.00
2019-04-09T00:46:47.630Z,65.00
2019-04-09T00:47:46.835Z,66.30
2019-04-09T00:48:46.652Z,68.20
2019-04-09T00:49:46.639Z,65.80
2019-04-09T00:50:46.650Z,68.70
2019-04-09T00:51:47.079Z,65.30
2019-04-09T00:52:46.888Z,62.90
2019-04-09T00:53:46.631Z,67.70
2019-04-09T00:54:46.606Z,67.90
2019-04-09T00:55:46.632Z,69.80
2019-04-09T00:56:58.060Z,66.60
2019-04-09T00:57:47.385Z,67.90
2019-04-09T00:58:46.593Z,66.00
2019-04-09T00:59:46.585Z,68.30
2019-04-09T01:00:48.524Z,68.00
2019-04-09T01:01:46.577Z,70.00
2019-04-09T01:02:47.354Z,67.90
2019-04-09T01:03:46.586Z,69.40
2019-04-09T01:04:46.556Z,68.90
2019-04-09T01:05:46.559Z,67.40
2019-04-09T01:06:46.544Z,65.50
2019-04-09T01:07:47.395Z,66.50
2019-04-09T01:08:47.682Z,69.60
2019-04-09T01:09:47.585Z,65.90
2019-04-09T01:10:46.537Z,66.60
2019-04-09T01:11:46.535Z,68.50
2019-04-09T01:12:46.517Z,66.00
2019-04-09T01:13:46.873Z,70.80
2019-04-09T01:14:46.505Z,66.10
2019-04-09T01:15:46.500Z,70.10
2019-04-09T01:16:46.491Z,69.70
2019-04-09T01:17:46.490Z,69.30
2019-04-09T01:18:46.486Z,67.20
2019-04-09T01:19:46.645Z,67.00
2019-04-09T01:20:46.488Z,67.70
2019-04-09T01:21:46.466Z,68.50
2019-04-09T01:22:46.469Z,71.20
2019-04-09T01:23:46.987Z,68.40
2019-04-09T01:24:46.444Z,71.20
2019-04-09T01:25:46.854Z,70.80
2019-04-09T01:26:47.021Z,68.90
2019-04-09T01:27:46.422Z,67.80
2019-04-09T01:28:46.442Z,67.60
2019-04-09T01:29:47.038Z,72.80
2019-04-09T01:30:46.411Z,71.90
2019-04-09T01:31:46.408Z,69.40
2019-04-09T01:32:47.313Z,71.10
2019-04-09T01:33:47.257Z,68.90
2019-04-09T01:34:47.098Z,69.40
2019-04-09T01:35:46.387Z,70.00
2019-04-09T01:36:46.374Z,72.50
2019-04-09T01:37:47.162Z,71.20
2019-04-09T01:38:47.001Z,70.60
2019-04-09T01:39:46.358Z,71.50
2019-04-09T01:40:46.354Z,70.40
2019-04-09T01:41:46.360Z,69.40
2019-04-09T01:42:46.373Z,74.20
2019-04-09T01:43:47.177Z,71.30
2019-04-09T01:44:46.327Z,72.80
2019-04-09T01:45:46.320Z,72.90
2019-04-09T01:46:47.155Z,70.20
2019-04-09T01:47:47.058Z,68.10
2019-04-09T01:48:46.957Z,71.80
2019-04-09T01:49:46.300Z,70.50
2019-04-09T01:50:47.145Z,71.10
2019-04-09T01:51:47.120Z,71.70
2019-04-09T01:52:46.912Z,70.40
2019-04-09T01:53:46.293Z,70.20
2019-04-09T01:54:46.279Z,71.70
2019-04-09T01:55:46.261Z,68.90
2019-04-09T01:56:47.301Z,69.00
2019-04-09T01:57:46.253Z,68.30
2019-04-09T01:58:47.125Z,70.30
2019-04-09T01:59:47.015Z,72.30
2019-04-09T02:00:46.237Z,71.60
2019-04-09T02:01:46.394Z,69.00
2019-04-09T02:02:46.390Z,71.70
2019-04-09T02:03:46.219Z,70.40
2019-04-09T02:04:46.509Z,72.70
2019-04-09T02:05:46.205Z,71.40
2019-04-09T02:06:46.202Z,71.70
2019-04-09T02:07:46.707Z,68.00
2019-04-09T02:08:46.742Z,70.80
2019-04-09T02:09:46.384Z,66.70
2019-04-09T02:10:46.196Z,68.90
2019-04-09T02:11:46.700Z,69.70
2019-04-09T02:12:46.887Z,71.20
2019-04-09T02:13:46.905Z,72.60
2019-04-09T02:14:46.149Z,71.80
2019-04-09T02:15:46.150Z,74.50
2019-04-09T02:16:46.140Z,78.50
2019-04-09T02:17:46.828Z,78.60
2019-04-09T02:18:46.793Z,75.30
2019-04-09T02:19:46.126Z,77.60
2019-04-09T02:20:46.108Z,86.20
2019-04-09T02:21:46.938Z,83.00
2019-04-09T02:22:46.961Z,80.50
2019-04-09T02:23:46.101Z,81.10
2019-04-09T02:24:46.093Z,80.50
2019-04-09T02:25:46.414Z,77.30
2019-04-09T02:26:46.870Z,76.00
2019-04-09T02:27:47.707Z,81.30
2019-04-09T02:28:46.287Z,76.20
2019-04-09T02:29:46.054Z,77.70
2019-04-09T02:30:46.075Z,78.30
2019-04-09T02:31:47.331Z,78.60
2019-04-09T02:32:46.545Z,77.20
2019-04-09T02:33:46.282Z,80.30
2019-04-09T02:34:46.038Z,81.80
2019-04-09T02:35:46.023Z,83.40
2019-04-09T02:36:46.253Z,83.40
2019-04-09T02:37:47.340Z,81.30
2019-04-09T02:38:46.049Z,84.20
2019-04-09T02:39:46.833Z,82.60
2019-04-09T02:40:45.992Z,84.30
2019-04-09T02:41:45.991Z,82.70
2019-04-09T02:42:45.986Z,86.80
2019-04-09T02:43:45.974Z,86.50
2019-04-09T02:44:45.967Z,87.20
2019-04-09T02:45:46.971Z,85.40
2019-04-09T02:46:46.808Z,85.00
2019-04-09T02:47:45.947Z,84.80
2019-04-09T02:48:45.954Z,80.80
2019-04-09T02:49:45.932Z,80.60
2019-04-09T02:50:45.928Z,81.80
2019-04-09T02:51:46.680Z,82.90
2019-04-09T02:52:45.925Z,83.10
2019-04-09T02:53:46.729Z,80.70
2019-04-09T02:54:46.300Z,81.40
2019-04-09T02:55:45.897Z,86.70
2019-04-09T02:56:45.901Z,83.80
2019-04-09T02:57:50.298Z,86.10
2019-04-09T02:58:45.881Z,85.90
2019-04-09T02:59:45.872Z,87.30
2019-04-09T03:00:46.323Z,88.10
2019-04-09T03:01:45.855Z,85.20
2019-04-09T03:02:46.192Z,83.00
2019-04-09T03:03:46.210Z,82.70
2019-04-09T03:04:45.855Z,80.40
2019-04-09T03:05:45.836Z,81.70
2019-04-09T03:06:45.826Z,79.30
2019-04-09T03:07:46.072Z,82.90
2019-04-09T03:08:45.836Z,85.70
2019-04-09T03:09:45.973Z,88.00
2019-04-09T03:10:46.806Z,84.90
2019-04-09T03:11:45.803Z,87.10
2019-04-09T03:12:45.790Z,89.20
2019-04-09T03:13:45.778Z,87.10
2019-04-09T03:14:46.618Z,88.20
2019-04-09T03:15:46.567Z,86.50
2019-04-09T03:16:46.494Z,87.00
2019-04-09T03:17:46.378Z,83.00
2019-04-09T03:18:45.759Z,85.00
2019-04-09T03:19:45.746Z,83.60
2019-04-09T03:20:45.733Z,80.80
2019-04-09T03:21:46.298Z,79.40
2019-04-09T03:22:46.168Z,81.50
2019-04-09T03:23:45.716Z,79.30
2019-04-09T03:24:45.717Z,79.60
2019-04-09T03:25:46.558Z,79.10
2019-04-09T03:26:45.693Z,80.10
2019-04-09T03:27:45.692Z,77.40
2019-04-09T03:28:45.687Z,81.70
2019-04-09T03:29:45.685Z,79.40
2019-04-09T03:30:46.648Z,78.30
2019-04-09T03:31:45.695Z,81.80
2019-04-09T03:32:46.819Z,78.70
2019-04-09T03:33:45.890Z,78.60
2019-04-09T03:34:46.304Z,77.70
2019-04-09T03:35:45.733Z,79.10
2019-04-09T03:36:45.777Z,77.40
2019-04-09T03:37:45.631Z,78.10
2019-04-09T03:38:45.622Z,80.00
2019-04-09T03:39:46.785Z,79.40
2019-04-09T03:40:45.634Z,81.00
2019-04-09T03:41:45.603Z,79.70
2019-04-09T03:42:46.523Z,77.60
2019-04-09T03:43:46.328Z,79.70
2019-04-09T03:44:46.143Z,79.30
2019-04-09T03:45:45.575Z,80.20
2019-04-09T03:46:45.574Z,78.20
2019-04-09T03:47:46.236Z,79.50
2019-04-09T03:48:46.186Z,79.60
2019-04-09T03:49:46.177Z,79.60
2019-04-09T03:50:46.194Z,76.40
2019-04-09T03:51:46.001Z,79.30
2019-04-09T03:52:45.598Z,78.40
2019-04-09T03:53:46.384Z,79.70
2019-04-09T03:54:45.521Z,79.00
2019-04-09T03:55:46.957Z,78.60
2019-04-09T03:56:46.409Z,78.60
2019-04-09T03:57:46.399Z,79.20
2019-04-09T03:58:46.286Z,78.20
2019-04-09T03:59:45.487Z,79.80
2019-04-09T04:00:45.481Z,79.90
2019-04-09T04:01:45.474Z,76.70
2019-04-09T04:02:45.469Z,75.90
2019-04-09T04:03:45.458Z,79.00
2019-04-09T04:04:46.113Z,80.20
2019-04-09T04:05:45.443Z,79.80
2019-04-09T04:06:46.323Z,78.70
2019-04-09T04:07:46.280Z,75.10
2019-04-09T04:08:45.518Z,76.70
2019-04-09T04:09:45.589Z,79.00
2019-04-09T04:10:46.495Z,76.20
2019-04-09T04:11:45.408Z,72.50
2019-04-09T04:12:45.824Z,76.10
2019-04-09T04:13:45.395Z,74.40
2019-04-09T04:14:45.389Z,75.20
2019-04-09T04:15:45.382Z,80.10
2019-04-09T04:16:45.379Z,75.90
2019-04-09T04:17:45.361Z,78.00
2019-04-09T04:18:46.069Z,75.70
2019-04-09T04:19:46.155Z,76.90
2019-04-09T04:20:45.443Z,77.70
2019-04-09T04:21:46.177Z,73.00
2019-04-09T04:22:46.099Z,72.20
2019-04-09T04:23:45.479Z,77.50
2019-04-09T04:24:45.346Z,74.50
2019-04-09T04:25:45.326Z,79.40
2019-04-09T04:26:45.310Z,78.40
2019-04-09T04:27:45.952Z,78.60
2019-04-09T04:28:45.297Z,75.20
2019-04-09T04:29:45.915Z,77.10
2019-04-09T04:30:46.261Z,77.60
2019-04-09T04:31:45.281Z,75.80
2019-04-09T04:32:45.272Z,78.70
2019-04-09T04:33:45.565Z,75.70
2019-04-09T04:34:45.541Z,76.40
2019-04-09T04:35:45.252Z,76.10
2019-04-09T04:39:51.695Z,78.70
2019-04-09T04:40:51.690Z,80.10
2019-04-09T04:42:45.877Z,75.20
2019-04-09T04:43:45.802Z,76.70
2019-04-09T04:45:40.599Z,78.10
2019-04-09T04:46:40.584Z,74.90
2019-04-09T04:48:34.246Z,77.70
2019-04-09T04:49:34.231Z,78.80
2019-04-09T04:51:27.528Z,74.60
2019-04-09T04:52:28.069Z,78.20
2019-04-09T04:54:22.146Z,74.60
2019-04-09T04:55:21.877Z,74.10
2019-04-09T04:57:16.561Z,76.20
2019-04-09T04:58:16.255Z,76.90
2019-04-09T05:00:10.843Z,73.10
2019-04-09T05:01:09.801Z,72.40
2019-04-09T05:03:04.215Z,74.50
2019-04-09T05:04:04.811Z,73.60
2019-04-09T05:05:59.497Z,75.60
2019-04-09T05:06:59.297Z,73.80
2019-04-09T05:08:53.110Z,76.50
2019-04-09T05:09:53.094Z,76.20
2019-04-09T05:11:47.420Z,81.50
2019-04-09T05:12:47.251Z,78.10
2019-04-09T05:14:40.661Z,78.30
2019-04-09T05:15:41.613Z,75.60
2019-04-09T05:17:35.032Z,74.80
2019-04-09T05:18:35.561Z,77.30
2019-04-09T05:20:29.376Z,74.10
2019-04-09T05:21:30.292Z,76.70
2019-04-09T05:23:22.944Z,76.10
2019-04-09T05:24:22.908Z,77.10
2019-04-09T05:26:17.973Z,76.10
2019-04-09T05:27:17.275Z,74.70
2019-04-09T05:29:11.882Z,76.00
2019-04-09T05:30:12.807Z,75.80
2019-04-09T05:32:05.635Z,76.10
2019-04-09T05:33:05.229Z,77.60
2019-04-09T05:34:58.849Z,76.90
2019-04-09T05:35:59.325Z,76.00
2019-04-09T05:37:54.022Z,73.70
2019-04-09T05:38:55.521Z,72.90
2019-04-09T05:40:47.528Z,77.80
2019-04-09T05:41:47.301Z,75.30
2019-04-09T05:42:47.700Z,76.30
2019-04-09T05:43:48.087Z,71.20
2019-04-09T05:44:47.459Z,74.20
2019-04-09T05:45:47.272Z,74.70
2019-04-09T05:46:48.013Z,76.20
2019-04-09T05:47:47.263Z,74.80
2019-04-09T05:48:47.252Z,74.60
2019-04-09T05:49:47.252Z,72.00
2019-04-09T05:50:47.251Z,77.00
2019-04-09T05:51:49.240Z,74.40
2019-04-09T05:52:49.150Z,77.70
2019-04-09T05:53:47.235Z,75.60
2019-04-09T05:54:47.561Z,74.70
2019-04-09T05:55:47.334Z,71.30
2019-04-09T05:56:47.512Z,77.20
2019-04-09T05:57:47.222Z,75.00
2019-04-09T05:58:59.116Z,74.90
2019-04-09T05:59:47.821Z,70.00
2019-04-09T06:00:47.182Z,73.40
2019-04-09T06:01:47.180Z,76.30
2019-04-09T06:02:47.173Z,74.20
2019-04-09T06:03:47.366Z,71.70
2019-04-09T06:04:47.918Z,75.90
2019-04-09T06:05:47.165Z,73.30
2019-04-09T06:06:47.146Z,76.10
2019-04-09T06:07:49.287Z,76.00
2019-04-09T06:08:47.140Z,75.80
2019-04-09T06:09:47.236Z,74.90
2019-04-09T06:10:47.324Z,76.00
2019-04-09T06:11:47.809Z,74.90
2019-04-09T06:12:47.194Z,73.60
2019-04-09T06:13:47.103Z,73.90
2019-04-09T06:14:47.098Z,77.10
2019-04-09T06:15:47.533Z,75.90
2019-04-09T06:16:47.096Z,75.70
2019-04-09T06:17:47.757Z,71.20
2019-04-09T06:18:47.073Z,73.30
2019-04-09T06:19:47.067Z,74.90
2019-04-09T06:20:47.062Z,75.10
2019-04-09T06:21:47.062Z,75.00
2019-04-09T06:22:47.711Z,72.90
2019-04-09T06:23:47.972Z,74.90
2019-04-09T06:24:47.787Z,75.30
2019-04-09T06:25:47.036Z,74.30
2019-04-09T06:26:47.026Z,77.30
2019-04-09T06:27:47.748Z,72.90
2019-04-09T06:28:47.019Z,73.60
2019-04-09T06:29:47.812Z,74.00
2019-04-09T06:30:47.007Z,72.90
2019-04-09T06:31:46.999Z,76.70
2019-04-09T06:32:47.796Z,75.70
2019-04-09T06:33:46.989Z,74.60
2019-04-09T06:34:46.985Z,76.00
2019-04-09T06:35:46.979Z,73.40
2019-04-09T06:36:47.827Z,76.20
2019-04-09T06:37:46.970Z,73.90
2019-04-09T06:38:48.109Z,71.30
2019-04-09T06:39:47.617Z,73.10
2019-04-09T06:40:46.949Z,75.80
2019-04-09T06:41:47.829Z,70.90
2019-04-09T06:42:46.941Z,73.00
2019-04-09T06:43:46.939Z,74.60
2019-04-09T06:44:46.933Z,72.40
2019-04-09T06:45:47.214Z,69.30
2019-04-09T06:46:46.923Z,72.70
2019-04-09T06:47:46.920Z,71.80
2019-04-09T06:48:47.965Z,70.80
2019-04-09T06:49:46.907Z,73.30
2019-04-09T06:50:47.361Z,70.90
2019-04-09T06:51:50.896Z,77.80
2019-04-09T06:52:46.916Z,72.80
2019-04-09T06:53:47.768Z,74.40
2019-04-09T06:54:56.280Z,74.50
2019-04-09T06:55:47.120Z,73.60
2019-04-09T06:56:47.552Z,75.40
2019-04-09T06:57:47.687Z,73.50
2019-04-09T06:58:47.058Z,73.90
2019-04-09T06:59:46.857Z,76.50
2019-04-09T07:00:46.856Z,72.30
2019-04-09T07:01:47.085Z,76.60
2019-04-09T07:02:46.933Z,73.20
2019-04-09T07:03:46.841Z,74.10
2019-04-09T07:04:46.836Z,72.90
2019-04-09T07:05:47.069Z,73.20
2019-04-09T07:06:46.830Z,71.70
2019-04-09T07:07:47.719Z,74.90
2019-04-09T07:08:46.821Z,74.80
2019-04-09T07:09:47.599Z,74.30
2019-04-09T07:10:46.811Z,75.50
2019-04-09T07:11:46.853Z,77.00
2019-04-09T07:12:47.157Z,73.60
2019-04-09T07:13:46.798Z,75.40
2019-04-09T07:14:46.799Z,73.40
2019-04-09T07:15:47.937Z,73.30
2019-04-09T07:16:46.785Z,74.30
2019-04-09T07:17:46.859Z,75.90
2019-04-09T07:18:47.266Z,76.10
2019-04-09T07:19:47.272Z,74.20
2019-04-09T07:20:46.807Z,77.20
2019-04-09T07:21:46.773Z,72.90
2019-04-09T07:22:46.753Z,75.30
2019-04-09T07:23:46.761Z,75.90
2019-04-09T07:24:46.753Z,78.10
2019-04-09T07:25:46.753Z,76.40
2019-04-09T07:26:48.868Z,77.50
2019-04-09T07:27:51.473Z,76.80
2019-04-09T07:28:47.092Z,75.60
2019-04-09T07:29:54.671Z,75.90
2019-04-09T07:30:47.667Z,74.20
2019-04-09T07:31:46.931Z,75.90
2019-04-09T07:32:47.851Z,81.80
2019-04-09T07:33:48.738Z,82.00
2019-04-09T07:34:51.469Z,82.10
2019-04-09T07:35:46.710Z,80.90
2019-04-09T07:36:46.708Z,80.50
2019-04-09T07:37:46.699Z,79.30
2019-04-09T07:38:48.723Z,77.60
2019-04-09T07:39:46.695Z,76.60
2019-04-09T07:40:46.693Z,76.50
2019-04-09T07:41:48.742Z,77.60
2019-04-09T07:42:49.349Z,79.20
2019-04-09T07:43:49.367Z,77.30
2019-04-09T07:44:47.696Z,79.70
2019-04-09T07:45:47.166Z,79.30
2019-04-09T07:46:49.138Z,79.30
2019-04-09T07:47:46.667Z,75.40
2019-04-09T07:48:46.661Z,77.40
2019-04-09T07:49:46.654Z,78.80
2019-04-09T07:50:47.307Z,79.70
2019-04-09T07:51:49.800Z,79.50
2019-04-09T07:52:46.649Z,80.50
2019-04-09T07:53:48.638Z,81.60
2019-04-09T07:54:49.563Z,78.50
2019-04-09T07:55:46.974Z,81.00
2019-04-09T07:56:47.144Z,80.50
2019-04-09T07:57:46.635Z,78.80
2019-04-09T07:58:47.203Z,78.80
2019-04-09T07:59:59.315Z,81.80
2019-04-09T08:00:47.674Z,82.50
2019-04-09T08:01:48.166Z,82.00
2019-04-09T08:02:46.611Z,81.00
2019-04-09T08:03:47.185Z,78.90
2019-04-09T08:04:48.992Z,81.40
2019-04-09T08:05:47.255Z,85.70
2019-04-09T08:06:49.803Z,86.80
2019-04-09T08:07:47.356Z,87.70
2019-04-09T08:08:46.590Z,82.00
2019-04-09T08:09:46.590Z,82.50
2019-04-09T08:10:46.584Z,80.60
2019-04-09T08:11:46.640Z,79.30
2019-04-09T08:12:49.052Z,79.90
2019-04-09T08:13:50.361Z,79.70
2019-04-09T08:14:46.572Z,77.40
2019-04-09T08:15:46.570Z,80.10
2019-04-09T08:16:46.569Z,79.80
2019-04-09T08:17:50.300Z,80.50
2019-04-09T08:18:47.200Z,76.00
2019-04-09T08:19:47.266Z,77.50
2019-04-09T08:20:46.553Z,77.20
2019-04-09T08:21:47.547Z,79.60
2019-04-09T08:22:48.505Z,79.50
2019-04-09T08:23:49.071Z,79.70
2019-04-09T08:24:46.542Z,77.70
2019-04-09T08:25:46.540Z,76.50
2019-04-09T08:26:47.095Z,75.90
2019-04-09T08:27:46.749Z,77.30
2019-04-09T08:28:51.193Z,76.90
2019-04-09T08:29:46.524Z,75.30
2019-04-09T08:30:47.316Z,77.30
2019-04-09T08:31:57.297Z,78.50
2019-04-09T08:32:47.635Z,79.00
2019-04-09T08:33:50.291Z,78.00
2019-04-09T08:34:46.508Z,78.60
2019-04-09T08:35:46.508Z,78.60
2019-04-09T08:36:48.515Z,78.60
2019-04-09T08:37:46.515Z,76.90
2019-04-09T08:38:47.586Z,75.80
2019-04-09T08:39:46.760Z,77.40
2019-04-09T08:40:50.831Z,76.80
2019-04-09T08:41:46.606Z,75.00
2019-04-09T08:42:46.665Z,74.50
2019-04-09T08:43:46.480Z,75.00
2019-04-09T08:44:49.454Z,75.00
2019-04-09T08:45:48.018Z,72.50
2019-04-09T08:46:46.476Z,76.10
2019-04-09T08:47:47.028Z,76.40
2019-04-09T08:48:47.309Z,73.40
2019-04-09T08:49:51.929Z,75.50
2019-04-09T08:50:47.164Z,73.00
2019-04-09T08:51:46.518Z,75.40
2019-04-09T08:52:47.172Z,73.90
2019-04-09T08:53:46.929Z,74.00
2019-04-09T08:54:46.597Z,76.20
2019-04-09T08:55:47.265Z,75.40
2019-04-09T08:56:46.449Z,75.30
2019-04-09T08:57:48.578Z,74.90
2019-04-09T08:58:46.446Z,72.60
2019-04-09T08:59:46.436Z,73.40
2019-04-09T09:01:22.627Z,75.80
2019-04-09T09:02:01.389Z,72.70
2019-04-09T09:02:50.023Z,72.00
2019-04-09T09:03:54.828Z,75.30
2019-04-09T09:04:53.800Z,74.40
2019-04-09T09:05:54.673Z,71.40
2019-04-09T09:06:49.299Z,70.10
2019-04-09T09:07:46.435Z,72.60
2019-04-09T09:08:46.431Z,71.80
2019-04-09T09:09:48.096Z,73.50
2019-04-09T09:10:51.274Z,73.30
2019-04-09T09:11:47.505Z,72.50
2019-04-09T09:12:47.353Z,72.50
2019-04-09T09:13:46.399Z,72.30
2019-04-09T09:14:46.400Z,71.50
2019-04-09T09:15:47.023Z,71.40
2019-04-09T09:16:46.397Z,70.60
2019-04-09T09:17:50.221Z,69.30
2019-04-09T09:18:46.387Z,74.40
2019-04-09T09:19:46.902Z,74.80
2019-04-09T09:20:47.871Z,74.30
2019-04-09T09:21:46.384Z,74.10
2019-04-09T09:22:48.074Z,70.40
2019-04-09T09:23:47.609Z,72.20
2019-04-09T09:24:51.310Z,71.60
2019-04-09T09:25:47.421Z,74.70
2019-04-09T09:26:47.063Z,71.10
2019-04-09T09:27:46.374Z,72.40
2019-04-09T09:28:47.005Z,72.30
2019-04-09T09:29:47.290Z,70.70
2019-04-09T09:30:58.518Z,70.10
2019-04-09T09:31:46.939Z,69.60
2019-04-09T09:32:47.598Z,71.50
2019-04-09T09:33:49.314Z,70.10
2019-04-09T09:34:50.415Z,72.10
2019-04-09T09:35:46.365Z,69.90
2019-04-09T09:36:46.358Z,74.40
2019-04-09T09:37:49.980Z,73.80
2019-04-09T09:38:46.354Z,69.60
2019-04-09T09:39:47.248Z,69.70
2019-04-09T09:40:47.105Z,68.60
2019-04-09T09:41:46.549Z,70.30
2019-04-09T09:42:46.666Z,70.70
2019-04-09T09:43:48.028Z,68.00
2019-04-09T09:44:47.169Z,69.30
2019-04-09T09:45:46.341Z,69.20
2019-04-09T09:46:46.917Z,69.80
2019-04-09T09:47:48.577Z,68.80
2019-04-09T09:48:49.217Z,68.20
2019-04-09T09:49:46.554Z,70.30
2019-04-09T09:50:46.339Z,67.70
2019-04-09T09:51:48.731Z,67.40
2019-04-09T09:52:47.772Z,69.30
2019-04-09T09:53:46.328Z,69.10
2019-04-09T09:54:47.520Z,67.10
2019-04-09T09:55:50.191Z,68.10
2019-04-09T09:56:46.321Z,65.70
2019-04-09T09:57:47.375Z,68.20
2019-04-09T09:58:49.053Z,65.40
2019-04-09T09:59:47.160Z,67.10
2019-04-09T10:00:46.503Z,65.60
2019-04-09T10:01:46.321Z,67.70
2019-04-09T10:02:46.312Z,63.50
2019-04-09T10:03:49.424Z,67.80
2019-04-09T10:04:46.548Z,66.10
2019-04-09T10:05:46.308Z,67.10
2019-04-09T10:06:49.599Z,67.50
2019-04-09T10:07:55.412Z,68.10
2019-04-09T10:08:48.708Z,68.70
2019-04-09T10:09:47.044Z,67.30
2019-04-09T10:10:47.928Z,69.00
2019-04-09T10:11:47.125Z,66.20
2019-04-09T10:12:50.189Z,68.40
2019-04-09T10:13:46.565Z,66.00
2019-04-09T10:14:46.319Z,69.90
2019-04-09T10:15:46.346Z,63.40
2019-04-09T10:16:50.137Z,64.70
2019-04-09T10:17:47.495Z,64.90
2019-04-09T10:18:59.374Z,65.00
2019-04-09T10:19:46.503Z,64.70
2019-04-09T10:20:47.767Z,65.00
2019-04-09T10:21:49.298Z,66.50
2019-04-09T10:22:46.288Z,61.90
2019-04-09T10:23:46.381Z,64.20
2019-04-09T10:24:46.290Z,62.10
2019-04-09T10:25:46.287Z,62.40
2019-04-09T10:26:48.378Z,63.50
2019-04-09T10:27:49.627Z,62.90
2019-04-09T10:28:46.284Z,64.10
2019-04-09T10:29:46.526Z,62.70
2019-04-09T10:30:48.851Z,62.80
2019-04-09T10:31:49.885Z,61.20
2019-04-09T10:32:46.284Z,63.30
2019-04-09T10:33:51.554Z,61.90
2019-04-09T10:34:46.280Z,61.30
2019-04-09T10:35:46.794Z,61.50
2019-04-09T10:36:47.452Z,61.40
2019-04-09T10:37:49.999Z,60.00
2019-04-09T10:38:46.282Z,61.90
2019-04-09T10:39:47.315Z,59.70
2019-04-09T10:40:46.754Z,58.30
2019-04-09T10:41:49.740Z,56.50
2019-04-09T10:42:46.278Z,56.20
2019-04-09T10:43:48.069Z,54.00
2019-04-09T10:44:48.784Z,57.10
2019-04-09T10:45:47.016Z,56.10
2019-04-09T10:46:46.467Z,54.20
2019-04-09T10:47:46.286Z,55.90
2019-04-09T10:48:48.607Z,48.40
2019-04-09T10:49:47.117Z,46.70
2019-04-09T10:50:46.282Z,46.70
2019-04-09T10:51:46.282Z,46.60
2019-04-09T10:52:46.279Z,46.00
2019-04-09T10:53:46.280Z,44.90
2019-04-09T10:54:47.702Z,44.60
2019-04-09T10:55:49.370Z,42.90
2019-04-09T10:56:48.837Z,41.40
2019-04-09T10:57:46.701Z,43.60
2019-04-09T10:58:46.276Z,40.40
2019-04-09T10:59:46.970Z,41.60
2019-04-09T11:00:47.053Z,38.70
2019-04-09T11:01:51.407Z,42.80
2019-04-09T11:02:47.257Z,46.30
2019-04-09T11:03:47.189Z,44.50
2019-04-09T11:04:47.351Z,46.30
2019-04-09T11:05:51.077Z,45.70
2019-04-09T11:06:46.273Z,45.20
2019-04-09T11:07:46.273Z,46.40
2019-04-09T11:08:46.269Z,45.30
2019-04-09T11:09:46.575Z,42.80
2019-04-09T11:10:46.475Z,43.30
2019-04-09T11:11:48.401Z,43.80
2019-04-09T11:12:46.892Z,43.30
2019-04-09T11:13:46.276Z,44.50
2019-04-09T11:14:48.386Z,42.80
2019-04-09T11:15:50.557Z,44.20
2019-04-09T11:16:46.516Z,42.70
2019-04-09T11:17:46.274Z,44.70
2019-04-09T11:18:48.183Z,42.90
2019-04-09T11:19:46.270Z,39.60
2019-04-09T11:20:46.939Z,43.70
2019-04-09T11:21:46.275Z,43.00
2019-04-09T11:22:50.277Z,44.40
2019-04-09T11:23:47.142Z,43.70
2019-04-09T11:24:46.335Z,43.60
2019-04-09T11:25:47.442Z,44.20
2019-04-09T11:26:49.991Z,42.90
2019-04-09T11:27:47.183Z,43.40
2019-04-09T11:28:46.277Z,42.90
2019-04-09T11:29:46.276Z,41.40
2019-04-09T11:30:46.275Z,42.20
2019-04-09T11:31:50.663Z,41.80
2019-04-09T11:32:46.498Z,42.70
2019-04-09T11:33:46.876Z,42.00
2019-04-09T11:34:46.274Z,43.70
2019-04-09T11:35:46.359Z,42.20
2019-04-09T11:36:47.391Z,42.80
2019-04-09T11:37:46.782Z,44.50
2019-04-09T11:38:46.278Z,44.00
2019-04-09T11:39:46.379Z,44.50
2019-04-09T11:40:47.184Z,43.80
2019-04-09T11:41:47.365Z,46.80
2019-04-09T11:42:46.280Z,50.20
2019-04-09T11:43:49.704Z,48.80
2019-04-09T11:44:46.280Z,48.90
2019-04-09T11:45:46.282Z,48.10
2019-04-09T11:46:46.499Z,49.70
2019-04-09T11:47:46.285Z,50.90
2019-04-09T11:48:46.283Z,51.80
2019-04-09T11:49:46.873Z,49.70
2019-04-09T11:50:46.289Z,49.30
2019-04-09T11:51:50.027Z,48.50
2019-04-09T11:52:46.947Z,49.40
2019-04-09T11:53:46.290Z,49.60
2019-04-09T11:54:47.099Z,47.60
2019-04-09T11:55:47.308Z,48.50
2019-04-09T11:56:46.384Z,48.00
2019-04-09T11:57:46.735Z,49.00
2019-04-09T11:58:46.889Z,47.80
2019-04-09T11:59:46.295Z,49.90
2019-04-09T12:00:48.496Z,46.50
2019-04-09T12:01:59.548Z,47.90
2019-04-09T12:02:46.396Z,49.60
2019-04-09T12:03:47.386Z,48.30
2019-04-09T12:04:46.290Z,47.50
2019-04-09T12:05:48.557Z,48.20
2019-04-09T12:06:47.310Z,47.60
2019-04-09T12:07:46.357Z,50.30
2019-04-09T12:08:46.705Z,49.50
2019-04-09T12:09:46.310Z,50.20
2019-04-09T12:10:46.294Z,48.80
2019-04-09T12:11:47.541Z,48.80
2019-04-09T12:12:46.313Z,49.80
2019-04-09T12:13:46.624Z,48.30
2019-04-09T12:14:46.462Z,47.90
2019-04-09T12:15:46.295Z,47.50
2019-04-09T12:16:46.296Z,50.00
2019-04-09T12:17:47.197Z,48.10
2019-04-09T12:18:46.356Z,48.40
2019-04-09T12:19:57.942Z,48.40
2019-04-09T12:20:46.835Z,47.60
2019-04-09T12:21:46.296Z,48.40
2019-04-09T12:22:46.298Z,47.50
2019-04-09T12:23:46.785Z,45.20
2019-04-09T12:24:47.178Z,48.20
2019-04-09T12:25:46.294Z,45.50
2019-04-09T12:26:46.524Z,45.80
2019-04-09T12:27:46.561Z,44.10
2019-04-09T12:28:46.302Z,45.00
2019-04-09T12:29:46.877Z,44.60
2019-04-09T12:30:46.306Z,46.30
2019-04-09T12:31:46.295Z,42.10
2019-04-09T12:32:46.303Z,41.50
2019-04-09T12:33:46.301Z,41.40
2019-04-09T12:34:46.585Z,40.90
2019-04-09T12:35:46.595Z,39.70
2019-04-09T12:36:46.302Z,39.70
2019-04-09T12:37:46.302Z,41.50
2019-04-09T12:38:47.311Z,41.60
2019-04-09T12:39:46.511Z,40.30
2019-04-09T12:40:46.720Z,41.70
2019-04-09T12:41:47.828Z,43.00
2019-04-09T12:42:46.384Z,42.80
2019-04-09T12:43:47.965Z,43.10
2019-04-09T12:44:46.304Z,43.60
2019-04-09T12:45:46.841Z,43.40
2019-04-09T12:46:46.301Z,41.50
2019-04-09T12:47:46.303Z,40.50
2019-04-09T12:48:47.268Z,39.20
2019-04-09T12:49:46.461Z,37.90
2019-04-09T12:50:48.729Z,38.00
2019-04-09T12:51:47.087Z,39.00
2019-04-09T12:52:46.303Z,39.20
2019-04-09T12:53:46.304Z,37.70
2019-04-09T12:54:46.306Z,37.20
2019-04-09T12:55:46.648Z,39.40
2019-04-09T12:56:47.096Z,34.60
2019-04-09T12:57:46.308Z,36.30
2019-04-09T12:58:46.455Z,35.80
2019-04-09T12:59:47.341Z,34.10
2019-04-09T13:00:46.307Z,35.20
2019-04-09T13:01:47.010Z,34.20
2019-04-09T13:02:46.907Z,33.30
2019-04-09T13:03:46.313Z,34.10
2019-04-09T13:04:46.954Z,35.60
2019-04-09T13:05:46.316Z,32.80
2019-04-09T13:06:46.320Z,32.60
2019-04-09T13:07:46.558Z,36.00
2019-04-09T13:08:46.317Z,35.50
2019-04-09T13:09:46.771Z,35.00
2019-04-09T13:10:46.316Z,37.10
2019-04-09T13:11:46.613Z,39.60
2019-04-09T13:12:46.591Z,39.20
2019-04-09T13:13:46.770Z,40.80
2019-04-09T13:14:46.321Z,39.10